createdAt,value
2022-10-07T00:00:04.831Z,4.13
2022-10-07T00:02:32.449Z,6.93
2022-10-07T00:04:59.717Z,9.33
2022-10-07T00:07:27.033Z,3.60
2022-10-07T00:09:54.245Z,3.47
2022-10-07T00:12:21.779Z,6.10
2022-10-07T00:14:49.054Z,3.83
2022-10-07T00:17:16.506Z,3.78
2022-10-07T00:19:44.055Z,4.30
2022-10-07T00:22:11.228Z,5.33
2022-10-07T00:24:38.680Z,5.27
2022-10-07T00:27:05.907Z,5.17
2022-10-07T00:29:33.308Z,6.50
2022-10-07T00:32:00.519Z,6.43
2022-10-07T00:34:27.790Z,4.00
2022-10-07T00:36:55.082Z,3.30
2022-10-07T00:39:22.411Z,4.10
2022-10-07T00:41:51.163Z,5.03
2022-10-07T00:44:44.695Z,6.40
2022-10-07T00:47:14.739Z,4.07
2022-10-07T00:50:02.241Z,6.67
2022-10-07T00:52:31.893Z,5.70
2022-10-07T00:55:01.069Z,7.80
2022-10-07T00:57:31.988Z,3.80
2022-10-07T00:59:59.870Z,5.80
2022-10-07T01:02:28.319Z,4.27
2022-10-07T01:04:58.724Z,5.57
2022-10-07T01:07:26.177Z,4.53
2022-10-07T01:09:54.385Z,5.07
2022-10-07T01:12:22.112Z,3.97
2022-10-07T01:14:55.549Z,9.30
2022-10-07T01:17:26.543Z,5.13
2022-10-07T01:20:00.097Z,6.67
2022-10-07T01:22:30.702Z,4.13
2022-10-07T01:25:13.004Z,9.17
2022-10-07T01:27:42.526Z,5.27
2022-10-07T01:30:10.385Z,4.73
2022-10-07T01:32:39.791Z,9.03
2022-10-07T01:35:13.638Z,7.33
2022-10-07T01:37:42.969Z,5.57
2022-10-07T01:40:16.110Z,5.37
2022-10-07T01:42:43.586Z,5.73
2022-10-07T01:45:12.733Z,4.43
2022-10-07T01:47:40.764Z,6.93
2022-10-07T01:50:14.896Z,7.27
2022-10-07T01:52:49.582Z,6.73
2022-10-07T01:55:28.804Z,7.20
2022-10-07T01:58:06.314Z,6.20
2022-10-07T02:00:37.402Z,5.37
2022-10-07T02:03:28.134Z,4.50
2022-10-07T02:06:02.434Z,5.83
2022-10-07T02:08:44.737Z,5.10
2022-10-07T02:11:18.067Z,7.00
2022-10-07T02:14:04.380Z,5.93
2022-10-07T02:16:55.214Z,7.60
2022-10-07T02:19:24.268Z,7.53
2022-10-07T02:21:52.828Z,6.57
2022-10-07T02:24:21.509Z,5.63
2022-10-07T02:26:50.335Z,6.93
2022-10-07T02:29:18.879Z,5.73
2022-10-07T02:31:47.711Z,5.83
2022-10-07T02:34:19.940Z,6.73
2022-10-07T02:37:07.948Z,5.27
2022-10-07T02:39:35.176Z,6.03
2022-10-07T02:42:25.365Z,6.40
2022-10-07T02:45:11.192Z,6.43
2022-10-07T02:47:43.173Z,6.13
2022-10-07T02:50:12.951Z,6.73
2022-10-07T02:52:41.098Z,13.67
2022-10-07T02:55:10.349Z,6.53
2022-10-07T02:57:43.346Z,5.57
2022-10-07T03:00:11.569Z,6.87
2022-10-07T03:02:45.148Z,4.87
2022-10-07T03:05:13.032Z,7.40
2022-10-07T03:07:40.377Z,5.17
2022-10-07T03:10:09.575Z,8.93
2022-10-07T03:12:36.798Z,7.00
2022-10-07T03:15:04.123Z,9.10
2022-10-07T03:17:31.483Z,6.07
2022-10-07T03:19:59.234Z,7.93
2022-10-07T03:22:26.497Z,6.80
2022-10-07T03:24:54.352Z,5.50
2022-10-07T03:27:22.419Z,6.13
2022-10-07T03:29:50.305Z,4.60
2022-10-07T03:32:17.615Z,5.60
2022-10-07T03:34:44.942Z,6.30
2022-10-07T03:37:12.547Z,6.67
2022-10-07T03:39:39.792Z,6.17
2022-10-07T03:42:07.090Z,7.87
2022-10-07T03:44:35.644Z,6.57
2022-10-07T03:47:05.700Z,8.00
2022-10-07T03:49:36.551Z,6.90
2022-10-07T03:52:04.265Z,9.37
2022-10-07T03:54:31.663Z,5.53
2022-10-07T03:56:58.973Z,7.27
2022-10-07T03:59:26.199Z,7.37
2022-10-07T04:01:53.708Z,6.60
2022-10-07T04:04:21.084Z,8.97
2022-10-07T04:06:48.296Z,7.43
2022-10-07T04:09:15.742Z,7.27
2022-10-07T04:11:43.466Z,8.10
2022-10-07T04:14:10.706Z,6.10
2022-10-07T04:16:38.771Z,7.00
2022-10-07T04:19:06.718Z,9.90
2022-10-07T04:21:34.174Z,9.90
2022-10-07T04:24:01.428Z,10.03
2022-10-07T04:26:28.702Z,7.10
2022-10-07T04:28:56.059Z,8.07
2022-10-07T04:31:23.966Z,6.80
2022-10-07T04:33:51.433Z,9.13
2022-10-07T04:36:18.639Z,7.43
2022-10-07T04:38:50.377Z,7.00
2022-10-07T04:41:18.205Z,8.50
2022-10-07T04:43:45.411Z,7.07
2022-10-07T04:46:14.346Z,7.80
2022-10-07T04:48:44.090Z,7.87
2022-10-07T04:51:11.291Z,8.10
2022-10-07T04:53:39.389Z,5.67
2022-10-07T04:56:07.194Z,8.90
2022-10-07T04:58:34.598Z,9.70
2022-10-07T05:01:02.166Z,10.47
2022-10-07T05:03:30.472Z,10.53
2022-10-07T05:06:06.560Z,10.57
2022-10-07T05:08:33.855Z,7.80
2022-10-07T05:11:02.010Z,9.30
2022-10-07T05:13:29.898Z,7.40
2022-10-07T05:15:58.824Z,7.83
2022-10-07T05:18:27.029Z,8.13
2022-10-07T05:20:54.978Z,8.70
2022-10-07T05:23:27.856Z,8.30
2022-10-07T05:25:59.717Z,8.73
2022-10-07T05:28:27.196Z,8.63
2022-10-07T05:31:06.142Z,8.07
2022-10-07T05:33:33.676Z,7.23
2022-10-07T05:36:01.209Z,9.33
2022-10-07T05:38:29.010Z,11.67
2022-10-07T05:40:59.895Z,11.80
2022-10-07T05:43:31.145Z,10.47
2022-10-07T05:46:02.635Z,14.13
2022-10-07T05:48:34.231Z,8.80
2022-10-07T05:51:04.573Z,8.70
2022-10-07T05:53:32.238Z,6.93
2022-10-07T05:55:59.825Z,5.90
2022-10-07T05:58:28.050Z,5.87
2022-10-07T06:00:58.056Z,92.83
2022-10-07T06:03:27.643Z,40.10
2022-10-07T06:05:55.425Z,18.50
2022-10-07T06:08:23.737Z,24.70
2022-10-07T06:11:09.529Z,22.13
2022-10-07T06:13:37.784Z,15.40
2022-10-07T06:16:09.316Z,17.10
2022-10-07T06:18:37.304Z,32.23
2022-10-07T06:21:04.749Z,39.83
2022-10-07T06:23:32.426Z,40.03
2022-10-07T06:26:00.965Z,45.83
2022-10-07T06:28:32.549Z,47.43
2022-10-07T06:31:00.206Z,42.37
2022-10-07T06:33:27.708Z,51.10
2022-10-07T06:36:02.231Z,43.70
2022-10-07T06:38:31.771Z,44.83
2022-10-07T06:40:59.647Z,51.63
2022-10-07T06:43:27.660Z,48.07
2022-10-07T06:46:02.373Z,47.27
2022-10-07T06:48:30.344Z,43.50
2022-10-07T06:51:03.372Z,53.27
2022-10-07T06:53:31.091Z,43.53
2022-10-07T06:56:02.070Z,46.73
2022-10-07T06:58:29.883Z,43.33
2022-10-07T07:00:57.917Z,45.80
2022-10-07T07:03:25.452Z,43.33
2022-10-07T07:05:54.521Z,37.93
2022-10-07T07:08:23.166Z,52.90
2022-10-07T07:10:50.383Z,39.60
2022-10-07T07:13:18.144Z,48.50
2022-10-07T07:15:54.556Z,44.90
2022-10-07T07:18:21.840Z,44.57
2022-10-07T07:20:49.023Z,42.77
2022-10-07T07:23:16.226Z,49.30
2022-10-07T07:25:46.610Z,57.27
2022-10-07T07:28:15.378Z,42.87
2022-10-07T07:30:43.271Z,50.37
2022-10-07T07:33:10.616Z,41.57
2022-10-07T07:35:41.612Z,41.87
2022-10-07T07:38:09.097Z,37.50
2022-10-07T07:40:37.578Z,37.20
2022-10-07T07:43:05.327Z,41.60
2022-10-07T07:45:33.161Z,40.60
2022-10-07T07:48:00.684Z,59.83
2022-10-07T07:50:27.978Z,41.17
2022-10-07T07:52:57.532Z,35.00
2022-10-07T07:55:25.059Z,39.10
2022-10-07T07:57:52.590Z,37.43
2022-10-07T08:00:20.141Z,30.63
2022-10-07T08:02:47.623Z,34.93
2022-10-07T08:05:15.817Z,39.17
2022-10-07T08:07:45.608Z,31.97
2022-10-07T08:10:13.029Z,33.50
2022-10-07T08:12:40.320Z,26.90
2022-10-07T08:15:09.192Z,32.70
2022-10-07T08:17:36.387Z,30.50
2022-10-07T08:20:03.791Z,30.57
2022-10-07T08:22:31.057Z,28.37
2022-10-07T08:25:00.023Z,23.13
2022-10-07T08:27:28.456Z,26.48
2022-10-07T08:29:56.564Z,24.93
2022-10-07T08:32:23.815Z,25.63
2022-10-07T08:34:51.120Z,22.60
2022-10-07T08:37:18.467Z,23.53
2022-10-07T08:39:45.722Z,21.15
2022-10-07T08:42:15.996Z,21.73
2022-10-07T08:44:45.257Z,22.05
2022-10-07T08:47:12.606Z,20.08
2022-10-07T08:49:54.148Z,23.47
2022-10-07T08:52:32.734Z,19.27
2022-10-07T08:55:04.372Z,20.48
2022-10-07T08:57:50.615Z,20.87
2022-10-07T09:00:20.077Z,20.20
2022-10-07T09:03:06.537Z,20.02
2022-10-07T09:05:42.040Z,21.42
2022-10-07T09:08:15.098Z,22.48
2022-10-07T09:10:49.549Z,21.88
2022-10-07T09:13:20.865Z,21.58
2022-10-07T09:16:00.504Z,22.50
2022-10-07T09:18:32.286Z,20.80
2022-10-07T09:21:00.449Z,20.43
2022-10-07T09:23:32.551Z,21.40
2022-10-07T09:25:59.808Z,19.88
2022-10-07T09:28:29.543Z,20.90
2022-10-07T09:30:57.772Z,18.58
2022-10-07T09:33:25.451Z,17.50
2022-10-07T09:35:57.718Z,17.35
2022-10-07T09:38:31.669Z,17.45
2022-10-07T09:41:15.692Z,19.42
2022-10-07T09:44:01.893Z,18.85
2022-10-07T09:46:35.325Z,20.05
2022-10-07T09:49:07.315Z,15.63
2022-10-07T09:51:35.488Z,20.13
2022-10-07T09:54:19.466Z,17.60
2022-10-07T09:56:47.627Z,12.65
2022-10-07T09:59:17.940Z,16.17
2022-10-07T10:01:54.233Z,17.77
2022-10-07T10:04:24.367Z,15.55
2022-10-07T10:06:52.935Z,20.77
2022-10-07T10:09:23.991Z,18.15
2022-10-07T10:12:12.323Z,13.52
2022-10-07T10:14:42.674Z,13.80
2022-10-07T10:17:21.882Z,16.10
2022-10-07T10:19:49.413Z,16.05
2022-10-07T10:22:43.707Z,19.70
2022-10-07T10:25:30.860Z,14.27
2022-10-07T10:28:06.304Z,15.57
2022-10-07T10:30:46.426Z,16.15
2022-10-07T10:33:20.471Z,15.98
2022-10-07T10:35:59.746Z,16.65
2022-10-07T10:38:49.077Z,14.88
2022-10-07T10:41:16.367Z,15.98
2022-10-07T10:43:46.759Z,15.75
2022-10-07T10:46:20.285Z,15.18
2022-10-07T10:48:50.944Z,19.70
2022-10-07T10:51:42.465Z,18.65
2022-10-07T10:54:18.204Z,18.40
2022-10-07T10:56:48.989Z,15.52
2022-10-07T10:59:25.849Z,15.18
2022-10-07T11:02:12.086Z,15.20
2022-10-07T11:04:50.192Z,13.75
2022-10-07T11:07:21.190Z,13.80
2022-10-07T11:09:53.250Z,16.42
2022-10-07T11:12:24.952Z,13.05
2022-10-07T11:14:57.874Z,14.63
2022-10-07T11:17:28.122Z,17.02
2022-10-07T11:20:12.599Z,15.10
2022-10-07T11:22:42.366Z,14.45
2022-10-07T11:25:15.967Z,13.52
2022-10-07T11:27:45.435Z,14.98
2022-10-07T11:30:21.277Z,12.68
2022-10-07T11:32:49.409Z,15.43
2022-10-07T11:35:37.016Z,14.07
2022-10-07T11:38:13.487Z,13.70
2022-10-07T11:40:58.843Z,13.85
2022-10-07T11:43:41.528Z,13.70
2022-10-07T11:46:11.538Z,13.55
2022-10-07T11:49:05.718Z,13.13
2022-10-07T11:51:40.183Z,14.35
2022-10-07T11:54:13.265Z,15.00
2022-10-07T11:57:06.797Z,11.50
2022-10-07T11:59:48.299Z,11.43
2022-10-07T12:02:31.076Z,14.68
2022-10-07T12:05:02.776Z,12.60
2022-10-07T12:07:33.183Z,12.70
2022-10-07T12:10:03.811Z,13.13
2022-10-07T12:12:47.256Z,13.10
2022-10-07T12:15:33.530Z,13.32
2022-10-07T12:18:21.334Z,11.55
2022-10-07T12:20:48.659Z,10.73
2022-10-07T12:23:19.017Z,12.32
2022-10-07T12:25:47.718Z,10.35
2022-10-07T12:28:35.745Z,10.95
2022-10-07T12:31:03.044Z,11.05
2022-10-07T12:33:43.494Z,12.20
2022-10-07T12:36:38.018Z,11.07
2022-10-07T12:39:07.962Z,11.07
2022-10-07T12:41:43.251Z,13.20
2022-10-07T12:44:16.706Z,12.00
2022-10-07T12:46:52.163Z,13.48
2022-10-07T12:49:22.603Z,12.65
2022-10-07T12:52:00.006Z,12.70
2022-10-07T12:54:35.145Z,12.88
2022-10-07T12:57:04.115Z,13.23
2022-10-07T12:59:49.802Z,11.32
2022-10-07T13:02:19.243Z,12.00
2022-10-07T13:04:55.929Z,12.68
2022-10-07T13:07:38.841Z,13.10
2022-10-07T13:10:06.090Z,12.85
2022-10-07T13:12:44.570Z,14.68
2022-10-07T13:15:31.502Z,12.63
2022-10-07T13:18:08.597Z,14.02
2022-10-07T13:20:40.361Z,14.70
2022-10-07T13:23:20.900Z,12.48
2022-10-07T13:25:55.235Z,13.48
2022-10-07T13:28:23.907Z,12.98
2022-10-07T13:30:53.227Z,11.77
2022-10-07T13:33:24.718Z,12.05
2022-10-07T13:35:53.113Z,14.32
2022-10-07T13:38:27.465Z,15.00
2022-10-07T13:41:02.730Z,11.57
2022-10-07T13:43:31.210Z,10.77
2022-10-07T13:45:59.585Z,13.07
2022-10-07T13:48:29.195Z,11.75
2022-10-07T13:50:58.608Z,12.90
2022-10-07T13:53:33.484Z,10.43
2022-10-07T13:56:19.748Z,9.45
2022-10-07T13:58:47.498Z,9.45
2022-10-07T14:01:15.045Z,9.38
2022-10-07T14:04:02.756Z,10.02
2022-10-07T14:06:38.101Z,10.63
2022-10-07T14:09:16.667Z,8.35
2022-10-07T14:11:43.935Z,10.73
2022-10-07T14:14:22.716Z,9.60
2022-10-07T14:16:51.519Z,9.93
2022-10-07T14:19:21.051Z,11.43
2022-10-07T14:21:48.765Z,8.20
2022-10-07T14:24:20.607Z,12.15
2022-10-07T14:26:48.409Z,12.73
2022-10-07T14:29:35.791Z,14.40
2022-10-07T14:32:32.316Z,11.10
2022-10-07T14:35:21.753Z,10.20
2022-10-07T14:37:49.462Z,10.75
2022-10-07T14:40:18.496Z,9.40
2022-10-07T14:42:46.369Z,9.70
2022-10-07T14:45:18.164Z,9.00
2022-10-07T14:47:45.926Z,8.63
2022-10-07T14:50:13.871Z,11.10
2022-10-07T14:52:47.104Z,9.25
2022-10-07T14:55:17.929Z,8.23
2022-10-07T14:57:47.390Z,7.30
2022-10-07T15:00:24.723Z,7.70
2022-10-07T15:02:53.293Z,8.88
2022-10-07T15:05:20.828Z,7.97
2022-10-07T15:07:49.984Z,8.50
2022-10-07T15:10:21.668Z,9.05
2022-10-07T15:12:49.302Z,13.63
2022-10-07T15:15:17.041Z,14.18
2022-10-07T15:17:44.868Z,10.75
2022-10-07T15:20:14.306Z,8.52
2022-10-07T15:22:42.428Z,8.70
2022-10-07T15:25:10.536Z,8.13
2022-10-07T15:27:38.088Z,11.30
2022-10-07T15:30:07.285Z,14.25
2022-10-07T15:32:35.105Z,10.52
2022-10-07T15:35:02.746Z,11.93
2022-10-07T15:37:30.092Z,10.75
2022-10-07T15:39:58.849Z,12.40
2022-10-07T15:42:26.188Z,13.27
2022-10-07T15:44:53.935Z,12.05
2022-10-07T15:47:21.838Z,14.30
2022-10-07T15:49:49.667Z,12.35
2022-10-07T15:52:17.235Z,10.50
2022-10-07T15:54:46.508Z,9.93
2022-10-07T15:57:14.397Z,8.25
2022-10-07T15:59:42.385Z,13.65
2022-10-07T16:02:16.891Z,10.43
2022-10-07T16:04:47.439Z,10.40
2022-10-07T16:07:15.282Z,12.07
2022-10-07T16:09:42.977Z,11.15
2022-10-07T16:12:10.291Z,25.52
2022-10-07T16:14:39.017Z,18.67
2022-10-07T16:17:06.344Z,25.67
2022-10-07T16:19:33.837Z,19.38
2022-10-07T16:22:01.350Z,15.63
2022-10-07T16:24:34.035Z,15.00
2022-10-07T16:27:02.466Z,14.02
2022-10-07T16:29:48.541Z,19.60
2022-10-07T16:32:15.907Z,18.13
2022-10-07T16:34:44.489Z,18.05
2022-10-07T16:37:14.951Z,18.73
2022-10-07T16:39:42.212Z,19.70
2022-10-07T16:42:09.647Z,20.25
2022-10-07T16:44:37.741Z,17.00
2022-10-07T16:47:05.035Z,18.60
2022-10-07T16:49:32.473Z,19.88
2022-10-07T16:52:00.032Z,17.17
2022-10-07T16:54:30.028Z,18.70
2022-10-07T16:56:57.731Z,19.88
2022-10-07T16:59:25.806Z,20.00
2022-10-07T17:01:55.709Z,24.25
2022-10-07T17:04:24.553Z,19.10
2022-10-07T17:06:52.108Z,18.90
2022-10-07T17:09:19.512Z,20.15
2022-10-07T17:11:47.257Z,18.40
2022-10-07T17:14:19.369Z,23.95
2022-10-07T17:16:48.030Z,32.45
2022-10-07T17:19:17.742Z,39.13
2022-10-07T17:21:46.391Z,42.80
2022-10-07T17:24:14.766Z,38.35
2022-10-07T17:26:42.337Z,26.80
2022-10-07T17:29:12.039Z,25.55
2022-10-07T17:31:40.309Z,21.73
2022-10-07T17:34:08.303Z,19.67
2022-10-07T17:36:35.680Z,24.70
2022-10-07T17:39:03.002Z,18.30
2022-10-07T17:41:32.257Z,17.17
2022-10-07T17:44:00.474Z,15.57
2022-10-07T17:46:29.623Z,17.67
2022-10-07T17:48:58.254Z,15.07
2022-10-07T17:51:28.101Z,20.63
2022-10-07T17:54:02.085Z,19.90
2022-10-07T17:56:30.293Z,24.17
2022-10-07T17:58:57.986Z,18.70
2022-10-07T18:01:27.609Z,19.95
2022-10-07T18:03:57.641Z,19.27
2022-10-07T18:06:30.365Z,19.30
2022-10-07T18:09:03.305Z,20.08
2022-10-07T18:11:49.739Z,23.27
2022-10-07T18:14:36.038Z,22.25
2022-10-07T18:17:03.631Z,23.70
2022-10-07T18:19:31.185Z,23.57
2022-10-07T18:21:58.932Z,24.67
2022-10-07T18:24:28.900Z,24.73
2022-10-07T18:26:59.422Z,23.60
2022-10-07T18:29:31.037Z,23.60
2022-10-07T18:31:58.359Z,21.88
2022-10-07T18:34:26.142Z,17.80
2022-10-07T18:36:56.676Z,20.40
2022-10-07T18:39:27.234Z,17.13
2022-10-07T18:41:54.570Z,18.60
2022-10-07T18:44:25.204Z,18.87
2022-10-07T18:46:53.317Z,21.45
2022-10-07T18:49:20.633Z,20.90
2022-10-07T18:51:50.527Z,23.25
2022-10-07T18:54:21.300Z,23.33
2022-10-07T18:56:49.193Z,23.03
2022-10-07T18:59:17.060Z,25.83
2022-10-07T19:01:49.899Z,29.98
2022-10-07T19:04:18.469Z,29.00
2022-10-07T19:06:46.331Z,25.60
2022-10-07T19:09:15.731Z,20.55
2022-10-07T19:11:43.027Z,20.60
2022-10-07T19:14:10.313Z,25.13
2022-10-07T19:16:45.126Z,24.73
2022-10-07T19:19:17.273Z,38.67
2022-10-07T19:21:54.777Z,33.13
2022-10-07T19:24:45.468Z,30.63
2022-10-07T19:27:12.724Z,29.23
2022-10-07T19:29:40.144Z,25.80
2022-10-07T19:32:08.729Z,23.30
2022-10-07T19:34:36.605Z,26.20
2022-10-07T19:37:04.202Z,25.43
2022-10-07T19:39:31.500Z,39.80
2022-10-07T19:41:59.327Z,42.60
2022-10-07T19:44:26.773Z,32.67
2022-10-07T19:46:54.407Z,34.90
2022-10-07T19:49:22.360Z,26.40
2022-10-07T19:51:49.884Z,30.40
2022-10-07T19:54:17.410Z,24.93
2022-10-07T19:56:45.341Z,25.63
2022-10-07T19:59:13.896Z,26.10
2022-10-07T20:01:42.632Z,29.93
2022-10-07T20:04:13.338Z,24.67
2022-10-07T20:06:40.936Z,29.93
2022-10-07T20:09:09.527Z,25.67
2022-10-07T20:11:37.115Z,27.83
2022-10-07T20:14:06.016Z,25.10
2022-10-07T20:16:34.327Z,28.10
2022-10-07T20:19:05.950Z,25.30
2022-10-07T20:21:35.556Z,26.93
2022-10-07T20:24:03.659Z,26.43
2022-10-07T20:26:32.027Z,32.97
2022-10-07T20:29:00.778Z,30.53
2022-10-07T20:31:29.805Z,28.30
2022-10-07T20:33:58.520Z,32.10
2022-10-07T20:36:27.548Z,36.70
2022-10-07T20:39:18.181Z,30.63
2022-10-07T20:42:04.319Z,32.17
2022-10-07T20:44:31.643Z,33.53
2022-10-07T20:46:58.948Z,34.77
2022-10-07T20:49:28.713Z,31.80
2022-10-07T20:52:01.193Z,32.93
2022-10-07T20:54:29.284Z,42.13
2022-10-07T20:57:00.382Z,39.57
2022-10-07T20:59:28.226Z,38.00
2022-10-07T21:01:55.542Z,36.80
2022-10-07T21:04:27.202Z,27.80
2022-10-07T21:06:54.756Z,31.07
2022-10-07T21:09:22.280Z,27.70
2022-10-07T21:11:49.917Z,24.33
2022-10-07T21:14:17.721Z,30.13
2022-10-07T21:16:46.327Z,26.70
2022-10-07T21:19:14.260Z,29.70
2022-10-07T21:21:42.137Z,34.40
2022-10-07T21:24:09.648Z,36.90
2022-10-07T21:26:37.149Z,37.70
2022-10-07T21:29:07.217Z,37.90
2022-10-07T21:31:35.750Z,38.17
2022-10-07T21:34:07.946Z,41.67
2022-10-07T21:36:37.159Z,39.30
2022-10-07T21:39:04.458Z,38.67
2022-10-07T21:41:34.413Z,43.20
2022-10-07T21:44:02.827Z,41.43
2022-10-07T21:46:31.223Z,41.07
2022-10-07T21:48:58.804Z,46.57
2022-10-07T21:51:27.299Z,46.00
2022-10-07T21:53:55.162Z,41.53
2022-10-07T21:56:22.473Z,43.07
2022-10-07T21:58:52.438Z,44.50
2022-10-07T22:01:21.075Z,46.60
2022-10-07T22:03:48.749Z,48.80
2022-10-07T22:06:17.342Z,45.03
2022-10-07T22:08:46.118Z,44.15
2022-10-07T22:11:17.982Z,43.33
2022-10-07T22:13:53.284Z,43.63
2022-10-07T22:16:20.724Z,47.08
2022-10-07T22:18:49.519Z,44.35
2022-10-07T22:21:17.068Z,45.57
2022-10-07T22:23:44.525Z,46.30
2022-10-07T22:26:13.000Z,46.60
2022-10-07T22:28:41.066Z,45.40
2022-10-07T22:31:10.103Z,46.30
2022-10-07T22:33:38.283Z,49.53
2022-10-07T22:36:10.496Z,47.80
2022-10-07T22:38:37.896Z,47.90
2022-10-07T22:41:06.023Z,51.20
2022-10-07T22:43:36.598Z,46.00
2022-10-07T22:46:04.086Z,48.63
2022-10-07T22:48:31.714Z,43.60
2022-10-07T22:51:07.084Z,46.20
2022-10-07T22:53:35.017Z,49.17
2022-10-07T22:56:03.223Z,50.30
2022-10-07T22:58:30.833Z,52.37
2022-10-07T23:01:02.949Z,45.70
2022-10-07T23:03:30.383Z,48.10
2022-10-07T23:06:00.199Z,48.17
2022-10-07T23:08:28.534Z,47.83
2022-10-07T23:10:56.977Z,49.97
2022-10-07T23:13:27.103Z,51.45
2022-10-07T23:16:01.759Z,50.67
2022-10-07T23:18:29.815Z,47.50
2022-10-07T23:21:04.834Z,52.07
2022-10-07T23:23:36.449Z,42.57
2022-10-07T23:26:05.452Z,50.83
2022-10-07T23:28:35.454Z,49.83
2022-10-07T23:31:10.073Z,50.40
2022-10-07T23:33:38.550Z,54.00
2022-10-07T23:36:09.093Z,54.07
2022-10-07T23:38:38.995Z,58.27
2022-10-07T23:41:07.330Z,56.40
2022-10-07T23:43:34.896Z,53.40
2022-10-07T23:46:02.312Z,61.27
2022-10-07T23:48:33.506Z,60.70
2022-10-07T23:51:01.322Z,59.80
2022-10-07T23:53:28.589Z,59.77
2022-10-07T23:55:55.871Z,53.87
2022-10-07T23:58:24.616Z,58.70
